createdAt,value
2023-05-05T00:00:09.127Z,57.96
2023-05-05T00:05:32.519Z,58.70
2023-05-05T00:10:35.605Z,59.90
2023-05-05T00:15:38.838Z,60.12
2023-05-05T00:20:42.841Z,59.89
2023-05-05T00:25:45.981Z,68.45
2023-05-05T00:30:49.589Z,70.19
2023-05-05T00:35:52.787Z,63.97
2023-05-05T00:40:55.987Z,55.26
2023-05-05T00:46:11.174Z,52.57
2023-05-05T00:51:17.423Z,53.61
2023-05-05T00:56:22.408Z,55.06
2023-05-05T01:01:25.863Z,57.25
2023-05-05T01:07:13.576Z,59.46
2023-05-05T01:13:15.287Z,68.40
2023-05-05T01:19:10.896Z,67.22
2023-05-05T01:24:23.121Z,61.34
2023-05-05T01:30:04.117Z,54.21
2023-05-05T01:35:26.984Z,53.33
2023-05-05T01:40:39.173Z,56.40
2023-05-05T01:45:45.692Z,59.57
2023-05-05T01:50:52.435Z,66.07
2023-05-05T01:55:58.306Z,65.18
2023-05-05T02:01:02.809Z,61.77
2023-05-05T02:06:08.820Z,54.89
2023-05-05T02:11:14.115Z,54.20
2023-05-05T02:16:19.050Z,57.33
2023-05-05T02:21:23.191Z,60.71
2023-05-05T02:26:28.472Z,65.26
2023-05-05T02:31:45.762Z,62.70
2023-05-05T02:36:54.562Z,56.88
2023-05-05T02:42:03.132Z,55.57
2023-05-05T02:47:08.222Z,58.40
2023-05-05T02:52:11.527Z,64.54
2023-05-05T02:57:21.322Z,63.76
2023-05-05T03:02:47.007Z,62.40
2023-05-05T03:08:03.556Z,55.08
2023-05-05T03:13:11.615Z,54.64
2023-05-05T03:18:18.341Z,58.16
2023-05-05T03:23:23.067Z,59.41
2023-05-05T03:28:27.034Z,60.40
2023-05-05T03:33:30.159Z,66.73
2023-05-05T03:38:33.269Z,67.00
2023-05-05T03:43:36.866Z,63.12
2023-05-05T03:48:40.085Z,55.40
2023-05-05T03:53:43.279Z,54.14
2023-05-05T03:58:46.491Z,56.60
2023-05-05T04:03:49.731Z,58.06
2023-05-05T04:08:53.321Z,59.79
2023-05-05T04:13:56.749Z,67.17
2023-05-05T04:19:00.056Z,67.55
2023-05-05T04:24:03.685Z,63.27
2023-05-05T04:29:07.281Z,57.30
2023-05-05T04:34:11.308Z,54.58
2023-05-05T04:39:14.419Z,56.55
2023-05-05T04:44:17.619Z,59.50
2023-05-05T04:49:20.938Z,62.46
2023-05-05T04:54:24.254Z,66.88
2023-05-05T04:59:27.349Z,62.50
2023-05-05T05:04:30.669Z,56.72
2023-05-05T05:09:34.088Z,56.49
2023-05-05T05:14:39.104Z,59.08
2023-05-05T05:19:42.235Z,60.28
2023-05-05T05:24:45.470Z,66.42
2023-05-05T05:29:48.751Z,61.86
2023-05-05T05:34:51.874Z,55.39
2023-05-05T05:39:55.068Z,54.37
2023-05-05T05:45:01.617Z,58.47
2023-05-05T05:50:07.332Z,60.69
2023-05-05T05:55:10.668Z,60.77
2023-05-05T06:00:16.095Z,61.43
2023-05-05T06:05:19.203Z,61.86
2023-05-05T06:10:27.930Z,61.28
2023-05-05T06:15:31.758Z,61.10
2023-05-05T06:20:35.172Z,61.52
2023-05-05T06:25:39.490Z,61.60
2023-05-05T06:30:42.636Z,60.53
2023-05-05T06:35:46.027Z,59.59
2023-05-05T06:40:51.935Z,59.53
2023-05-05T06:45:55.211Z,58.95
2023-05-05T06:50:58.526Z,58.05
2023-05-05T06:56:01.736Z,57.66
2023-05-05T07:01:05.416Z,56.90
2023-05-05T07:06:08.566Z,56.41
2023-05-05T07:11:11.774Z,56.37
2023-05-05T07:16:15.301Z,55.21
2023-05-05T07:21:18.404Z,55.20
2023-05-05T07:26:21.707Z,55.33
2023-05-05T07:31:26.783Z,55.14
2023-05-05T07:36:30.585Z,54.89
2023-05-05T07:41:33.833Z,54.40
2023-05-05T07:46:37.470Z,54.31
2023-05-05T07:51:40.817Z,54.48
2023-05-05T07:56:44.337Z,53.88
2023-05-05T08:01:47.433Z,52.80
2023-05-05T08:06:50.772Z,52.70
2023-05-05T08:11:53.985Z,52.77
2023-05-05T08:16:57.729Z,52.25
2023-05-05T08:22:01.750Z,51.58
2023-05-05T08:27:04.944Z,51.42
2023-05-05T08:32:08.131Z,50.95
2023-05-05T08:37:11.647Z,50.36
2023-05-05T08:42:25.461Z,50.34
2023-05-05T08:47:38.193Z,50.73
2023-05-05T08:52:53.598Z,49.65
2023-05-05T08:57:58.483Z,48.90
2023-05-05T09:03:02.793Z,48.26
2023-05-05T09:08:10.214Z,47.11
2023-05-05T09:13:28.885Z,47.14
2023-05-05T09:18:31.989Z,46.91
2023-05-05T09:23:35.099Z,46.25
2023-05-05T09:28:38.828Z,45.72
2023-05-05T09:33:42.228Z,45.92
2023-05-05T09:39:06.358Z,45.72
2023-05-05T09:44:11.417Z,46.60
2023-05-05T09:49:18.236Z,46.13
2023-05-05T09:54:30.781Z,45.43
2023-05-05T09:59:34.327Z,45.21
2023-05-05T10:04:37.618Z,44.06
2023-05-05T10:09:41.042Z,43.87
2023-05-05T10:14:44.581Z,43.81
2023-05-05T10:19:50.235Z,44.36
2023-05-05T10:25:03.375Z,44.71
2023-05-05T10:30:10.527Z,44.06
2023-05-05T10:35:22.366Z,43.75
2023-05-05T10:40:26.213Z,44.70
2023-05-05T10:45:29.717Z,43.08
2023-05-05T10:51:06.738Z,43.39
2023-05-05T10:56:26.933Z,42.43
2023-05-05T11:01:36.565Z,40.32
2023-05-05T11:06:39.801Z,40.07
2023-05-05T11:12:04.830Z,40.87
2023-05-05T11:17:47.899Z,38.34
2023-05-05T11:23:03.361Z,40.17
2023-05-05T11:28:15.285Z,40.53
2023-05-05T11:33:36.190Z,41.12
2023-05-05T11:38:39.347Z,39.29
2023-05-05T11:43:43.026Z,40.15
2023-05-05T11:48:49.226Z,39.63
2023-05-05T11:53:53.033Z,38.59
2023-05-05T11:59:11.340Z,36.62
2023-05-05T12:04:16.272Z,37.14
2023-05-05T12:09:22.232Z,37.26
2023-05-05T12:14:26.232Z,37.13
2023-05-05T12:19:33.492Z,36.78
2023-05-05T12:24:36.861Z,37.71
2023-05-05T12:29:40.275Z,37.80
2023-05-05T12:34:44.087Z,36.40
2023-05-05T12:39:47.340Z,36.87
2023-05-05T12:44:50.940Z,36.65
2023-05-05T12:49:54.030Z,36.30
2023-05-05T12:54:59.835Z,35.11
2023-05-05T13:00:15.558Z,34.32
2023-05-05T13:05:33.318Z,35.02
2023-05-05T13:10:37.583Z,34.67
2023-05-05T13:15:41.378Z,34.49
2023-05-05T13:20:44.721Z,34.23
2023-05-05T13:25:48.031Z,33.76
2023-05-05T13:30:51.245Z,35.26
2023-05-05T13:35:54.572Z,36.15
2023-05-05T13:40:58.063Z,34.76
2023-05-05T13:46:16.143Z,32.83
2023-05-05T13:51:22.534Z,33.42
2023-05-05T13:56:27.964Z,32.43
2023-05-05T14:01:31.310Z,32.95
2023-05-05T14:06:35.923Z,32.59
2023-05-05T14:11:39.033Z,32.91
2023-05-05T14:16:42.404Z,33.27
2023-05-05T14:21:45.648Z,32.84
2023-05-05T14:26:49.469Z,31.59
2023-05-05T14:31:52.605Z,32.54
2023-05-05T14:36:56.100Z,32.15
2023-05-05T14:41:59.418Z,32.55
2023-05-05T14:47:02.821Z,33.39
2023-05-05T14:52:06.150Z,33.46
2023-05-05T14:57:09.754Z,33.03
2023-05-05T15:02:12.850Z,32.69
2023-05-05T15:07:16.103Z,33.37
2023-05-05T15:12:19.782Z,33.55
2023-05-05T15:17:23.143Z,33.98
2023-05-05T15:22:26.631Z,32.64
2023-05-05T15:27:30.943Z,32.01
2023-05-05T15:32:34.833Z,33.45
2023-05-05T15:37:38.149Z,32.17
2023-05-05T15:42:41.491Z,31.03
2023-05-05T15:47:44.974Z,31.04
2023-05-05T15:52:49.902Z,30.16
2023-05-05T15:57:54.597Z,30.31
2023-05-05T16:02:57.815Z,29.65
2023-05-05T16:08:01.120Z,30.06
2023-05-05T16:13:05.064Z,30.78
2023-05-05T16:18:08.364Z,30.53
2023-05-05T16:23:11.495Z,30.26
2023-05-05T16:28:14.671Z,30.31
2023-05-05T16:33:17.900Z,30.63
2023-05-05T16:38:21.079Z,31.36
2023-05-05T16:43:24.107Z,31.06
2023-05-05T16:48:27.302Z,30.68
2023-05-05T16:53:30.509Z,30.40
2023-05-05T16:58:33.820Z,30.36
2023-05-05T17:03:38.364Z,30.68
2023-05-05T17:08:41.678Z,31.06
2023-05-05T17:13:47.674Z,31.08
2023-05-05T17:18:51.508Z,31.55
2023-05-05T17:23:54.774Z,32.01
2023-05-05T17:28:58.087Z,32.61
2023-05-05T17:34:01.189Z,33.04
2023-05-05T17:39:06.104Z,32.91
2023-05-05T17:44:09.453Z,33.58
2023-05-05T17:49:12.874Z,33.84
2023-05-05T17:54:16.500Z,34.67
2023-05-05T17:59:19.736Z,34.61
2023-05-05T18:04:22.921Z,34.96
2023-05-05T18:09:27.050Z,35.10
2023-05-05T18:14:30.314Z,35.35
2023-05-05T18:19:33.556Z,35.49
2023-05-05T18:24:36.771Z,35.79
2023-05-05T18:29:39.975Z,36.04
2023-05-05T18:34:43.492Z,36.41
2023-05-05T18:39:46.662Z,36.76
2023-05-05T18:44:49.905Z,37.13
2023-05-05T18:49:53.214Z,37.42
2023-05-05T18:54:56.429Z,38.33
2023-05-05T19:00:00.766Z,39.12
2023-05-05T19:05:05.003Z,39.52
2023-05-05T19:10:09.631Z,40.41
2023-05-05T19:15:13.666Z,40.62
2023-05-05T19:20:17.190Z,41.48
2023-05-05T19:25:20.396Z,41.63
2023-05-05T19:30:23.910Z,42.72
2023-05-05T19:35:28.036Z,42.86
2023-05-05T19:40:31.346Z,43.50
2023-05-05T19:45:35.096Z,43.93
2023-05-05T19:50:38.659Z,44.56
2023-05-05T19:55:41.927Z,44.64
2023-05-05T20:00:45.308Z,45.21
2023-05-05T20:05:48.614Z,45.28
2023-05-05T20:10:51.932Z,45.16
2023-05-05T20:15:55.288Z,45.39
2023-05-05T20:21:01.625Z,45.87
2023-05-05T20:26:05.969Z,46.20
2023-05-05T20:31:10.639Z,46.34
2023-05-05T20:36:13.811Z,46.47
2023-05-05T20:41:16.928Z,46.89
2023-05-05T20:46:20.047Z,46.98
2023-05-05T20:51:23.361Z,48.01
2023-05-05T20:56:26.752Z,47.64
2023-05-05T21:01:30.175Z,48.10
2023-05-05T21:06:33.576Z,48.21
2023-05-05T21:11:37.292Z,48.13
2023-05-05T21:16:40.539Z,48.13
2023-05-05T21:21:44.544Z,49.36
2023-05-05T21:26:48.045Z,49.32
2023-05-05T21:31:51.384Z,49.44
2023-05-05T21:36:54.771Z,49.49
2023-05-05T21:41:59.214Z,49.57
2023-05-05T21:47:02.433Z,50.00
2023-05-05T21:52:05.850Z,49.95
2023-05-05T21:57:09.262Z,50.67
2023-05-05T22:02:12.964Z,50.71
2023-05-05T22:07:16.486Z,51.14
2023-05-05T22:12:19.697Z,52.04
2023-05-05T22:17:23.107Z,51.62
2023-05-05T22:22:26.422Z,51.67
2023-05-05T22:27:29.731Z,51.72
2023-05-05T22:32:33.098Z,52.10
2023-05-05T22:37:36.864Z,52.68
2023-05-05T22:42:40.189Z,52.67
2023-05-05T22:47:43.569Z,52.37
2023-05-05T22:52:47.218Z,52.66
2023-05-05T22:57:52.778Z,53.15
2023-05-05T23:02:56.124Z,53.51
2023-05-05T23:08:01.543Z,52.97
2023-05-05T23:13:04.979Z,53.94
2023-05-05T23:18:08.332Z,54.24
2023-05-05T23:23:11.785Z,54.62
2023-05-05T23:28:15.095Z,54.37
2023-05-05T23:33:18.309Z,54.44
2023-05-05T23:38:22.127Z,53.93
2023-05-05T23:43:25.440Z,54.50
2023-05-05T23:48:28.658Z,54.28
2023-05-05T23:53:31.953Z,54.41
2023-05-05T23:58:35.282Z,54.32
